createdAt,value
2022-09-13T00:02:15.843Z,22.70
2022-09-13T00:04:46.430Z,21.57
2022-09-13T00:07:15.821Z,21.83
2022-09-13T00:09:48.296Z,22.70
2022-09-13T00:12:16.666Z,23.77
2022-09-13T00:14:44.776Z,21.33
2022-09-13T00:17:13.372Z,25.37
2022-09-13T00:19:44.133Z,21.07
2022-09-13T00:22:15.159Z,22.57
2022-09-13T00:24:43.630Z,23.67
2022-09-13T00:27:15.315Z,22.70
2022-09-13T00:29:57.516Z,22.07
2022-09-13T00:32:25.758Z,25.63
2022-09-13T00:34:53.905Z,25.43
2022-09-13T00:37:23.186Z,25.17
2022-09-13T00:39:54.649Z,27.30
2022-09-13T00:42:28.096Z,27.10
2022-09-13T00:44:58.771Z,24.20
2022-09-13T00:47:30.324Z,24.23
2022-09-13T00:50:00.229Z,26.70
2022-09-13T00:52:28.837Z,23.17
2022-09-13T00:54:58.442Z,22.60
2022-09-13T00:57:28.213Z,25.00
2022-09-13T01:00:04.120Z,25.87
2022-09-13T01:02:32.430Z,25.17
2022-09-13T01:05:00.843Z,26.80
2022-09-13T01:07:30.205Z,28.00
2022-09-13T01:09:59.484Z,26.90
2022-09-13T01:12:33.496Z,25.03
2022-09-13T01:15:02.452Z,26.10
2022-09-13T01:17:30.761Z,25.37
2022-09-13T01:19:59.949Z,32.17
2022-09-13T01:23:04.498Z,33.13
2022-09-13T01:26:07.993Z,25.97
2022-09-13T01:29:11.647Z,23.77
2022-09-13T01:31:44.835Z,26.87
2022-09-13T01:34:21.988Z,27.27
2022-09-13T01:37:16.938Z,28.37
2022-09-13T01:39:56.066Z,29.87
2022-09-13T01:42:28.218Z,27.67
2022-09-13T01:45:05.056Z,28.40
2022-09-13T01:47:35.959Z,30.27
2022-09-13T01:50:13.488Z,26.53
2022-09-13T01:52:46.010Z,28.53
2022-09-13T01:55:24.616Z,29.10
2022-09-13T01:57:55.005Z,27.27
2022-09-13T02:00:23.178Z,30.90
2022-09-13T02:02:54.070Z,28.73
2022-09-13T02:05:28.641Z,28.73
2022-09-13T02:08:00.718Z,30.13
2022-09-13T02:10:31.550Z,28.23
2022-09-13T02:12:59.818Z,28.73
2022-09-13T02:15:33.017Z,32.00
2022-09-13T02:18:06.187Z,27.80
2022-09-13T02:20:36.153Z,29.57
2022-09-13T02:23:06.915Z,31.80
2022-09-13T02:25:38.018Z,32.93
2022-09-13T02:28:08.144Z,30.73
2022-09-13T02:30:36.721Z,34.37
2022-09-13T02:33:09.084Z,36.23
2022-09-13T02:35:40.230Z,35.50
2022-09-13T02:38:10.415Z,34.80
2022-09-13T02:40:40.731Z,37.47
2022-09-13T02:43:11.701Z,35.17
2022-09-13T02:45:43.750Z,32.87
2022-09-13T02:48:16.693Z,35.73
2022-09-13T02:50:48.151Z,34.60
2022-09-13T02:53:20.507Z,36.20
2022-09-13T02:55:54.820Z,37.87
2022-09-13T02:58:27.311Z,33.33
2022-09-13T03:00:56.004Z,34.13
2022-09-13T03:03:25.638Z,32.37
2022-09-13T03:05:56.872Z,33.10
2022-09-13T03:08:25.363Z,39.67
2022-09-13T03:10:58.825Z,32.17
2022-09-13T03:13:37.719Z,33.73
2022-09-13T03:16:20.060Z,34.43
2022-09-13T03:18:59.212Z,33.60
2022-09-13T03:21:42.685Z,34.47
2022-09-13T03:24:15.910Z,36.93
2022-09-13T03:26:48.282Z,34.87
2022-09-13T03:29:27.556Z,38.50
2022-09-13T03:32:02.044Z,36.23
2022-09-13T03:34:43.638Z,39.37
2022-09-13T03:37:14.381Z,39.37
2022-09-13T03:39:48.767Z,40.67
2022-09-13T03:42:22.451Z,42.13
2022-09-13T03:44:57.187Z,42.47
2022-09-13T03:47:26.589Z,39.60
2022-09-13T03:49:56.904Z,39.30
2022-09-13T03:52:25.530Z,35.87
2022-09-13T03:54:54.221Z,42.00
2022-09-13T03:57:23.266Z,34.63
2022-09-13T03:59:52.510Z,39.87
2022-09-13T04:02:24.303Z,41.83
2022-09-13T04:04:52.596Z,44.70
2022-09-13T04:07:24.426Z,38.87
2022-09-13T04:09:57.945Z,40.97
2022-09-13T04:12:26.429Z,41.87
2022-09-13T04:14:54.522Z,40.40
2022-09-13T04:17:22.970Z,35.60
2022-09-13T04:19:51.146Z,40.07
2022-09-13T04:22:23.823Z,41.37
2022-09-13T04:24:53.077Z,47.23
2022-09-13T04:27:25.766Z,41.00
2022-09-13T04:29:54.242Z,43.20
2022-09-13T04:32:23.745Z,41.17
2022-09-13T04:34:52.208Z,39.50
2022-09-13T04:37:23.501Z,42.87
2022-09-13T04:39:53.645Z,39.73
2022-09-13T04:42:22.057Z,41.67
2022-09-13T04:44:52.074Z,42.00
2022-09-13T04:47:22.807Z,39.70
2022-09-13T04:49:51.076Z,37.30
2022-09-13T04:52:21.730Z,39.40
2022-09-13T04:54:50.101Z,34.47
2022-09-13T04:57:21.248Z,38.20
2022-09-13T04:59:49.467Z,36.23
2022-09-13T05:02:17.756Z,36.43
2022-09-13T05:04:47.196Z,38.47
2022-09-13T05:07:15.369Z,39.43
2022-09-13T05:09:43.526Z,38.03
2022-09-13T05:12:32.647Z,38.47
2022-09-13T05:15:08.749Z,41.70
2022-09-13T05:17:43.527Z,41.33
2022-09-13T05:20:17.226Z,39.57
2022-09-13T05:22:46.107Z,41.03
2022-09-13T05:25:16.609Z,43.90
2022-09-13T05:27:48.697Z,41.77
2022-09-13T05:30:21.466Z,41.17
2022-09-13T05:32:58.272Z,43.13
2022-09-13T05:35:28.075Z,41.57
2022-09-13T05:37:59.456Z,43.13
2022-09-13T05:40:27.824Z,39.13
2022-09-13T05:42:56.144Z,39.37
2022-09-13T05:45:33.954Z,39.73
2022-09-13T05:48:02.635Z,47.77
2022-09-13T05:50:56.885Z,44.07
2022-09-13T05:53:21.967Z,42.37
2022-09-13T05:55:57.395Z,44.40
2022-09-13T05:58:33.575Z,41.00
2022-09-13T06:01:07.114Z,41.97
2022-09-13T06:03:36.305Z,39.37
2022-09-13T06:06:19.765Z,42.43
2022-09-13T06:08:59.853Z,38.57
2022-09-13T06:11:38.093Z,40.17
2022-09-13T06:14:10.137Z,40.63
2022-09-13T06:16:51.737Z,37.67
2022-09-13T06:19:20.807Z,31.27
2022-09-13T06:21:49.071Z,18.50
2022-09-13T06:24:17.326Z,20.60
2022-09-13T06:27:04.136Z,11.43
2022-09-13T06:29:37.154Z,14.70
2022-09-13T06:32:16.348Z,11.63
2022-09-13T06:34:48.158Z,12.63
2022-09-13T06:37:18.164Z,11.63
2022-09-13T06:40:03.376Z,11.93
2022-09-13T06:42:36.205Z,7.17
2022-09-13T06:45:09.216Z,10.20
2022-09-13T06:47:47.667Z,9.73
2022-09-13T06:50:36.547Z,9.20
2022-09-13T06:56:09.723Z,7.73
2022-09-13T06:58:38.950Z,7.13
2022-09-13T07:01:14.247Z,7.77
2022-09-13T07:03:50.962Z,7.13
2022-09-13T07:06:22.814Z,11.80
2022-09-13T07:08:57.199Z,6.63
2022-09-13T07:11:29.713Z,7.00
2022-09-13T07:14:01.344Z,8.50
2022-09-13T07:16:32.076Z,6.80
2022-09-13T07:19:05.757Z,6.50
2022-09-13T07:21:36.005Z,7.03
2022-09-13T07:24:09.628Z,5.93
2022-09-13T07:26:38.241Z,6.70
2022-09-13T07:29:16.543Z,3.77
2022-09-13T07:31:47.103Z,4.00
2022-09-13T07:34:17.629Z,5.13
2022-09-13T07:36:46.927Z,6.13
2022-09-13T07:39:21.578Z,13.13
2022-09-13T07:41:51.013Z,6.77
2022-09-13T07:44:22.293Z,8.93
2022-09-13T07:46:50.806Z,3.97
2022-09-13T07:49:22.476Z,4.70
2022-09-13T07:51:53.290Z,2.67
2022-09-13T07:54:24.843Z,6.80
2022-09-13T07:56:57.357Z,6.10
2022-09-13T07:59:29.950Z,5.07
2022-09-13T08:02:05.282Z,3.37
2022-09-13T08:04:42.981Z,4.17
2022-09-13T08:07:11.302Z,7.60
2022-09-13T08:09:39.534Z,5.63
2022-09-13T08:12:12.514Z,4.60
2022-09-13T08:14:46.686Z,3.27
2022-09-13T08:17:14.838Z,5.17
2022-09-13T08:19:44.718Z,5.43
2022-09-13T08:22:14.004Z,3.47
2022-09-13T08:24:43.397Z,5.70
2022-09-13T08:27:13.581Z,7.43
2022-09-13T08:29:41.766Z,4.80
2022-09-13T08:32:23.148Z,3.53
2022-09-13T08:34:58.473Z,5.53
2022-09-13T08:37:26.917Z,4.47
2022-09-13T08:39:59.219Z,5.57
2022-09-13T08:42:42.884Z,4.47
2022-09-13T08:45:14.122Z,4.80
2022-09-13T08:47:45.722Z,5.67
2022-09-13T08:50:23.490Z,7.83
2022-09-13T08:53:17.873Z,5.67
2022-09-13T08:55:56.148Z,5.33
2022-09-13T08:59:03.667Z,6.80
2022-09-13T09:01:51.726Z,6.60
2022-09-13T09:04:40.759Z,4.20
2022-09-13T09:07:25.013Z,8.40
2022-09-13T09:09:54.623Z,5.30
2022-09-13T09:12:28.052Z,3.83
2022-09-13T09:15:00.669Z,2.70
2022-09-13T09:17:34.532Z,5.17
2022-09-13T09:20:21.421Z,3.33
2022-09-13T09:22:51.352Z,3.50
2022-09-13T09:25:24.836Z,4.23
2022-09-13T09:27:56.334Z,4.60
2022-09-13T09:30:24.723Z,2.77
2022-09-13T09:33:19.355Z,7.17
2022-09-13T09:35:55.041Z,4.23
2022-09-13T09:38:40.121Z,6.43
2022-09-13T09:41:12.064Z,5.03
2022-09-13T09:43:53.780Z,4.30
2022-09-13T09:46:31.304Z,3.37
2022-09-13T09:49:36.749Z,4.57
2022-09-13T09:52:07.019Z,5.03
2022-09-13T09:54:39.168Z,5.50
2022-09-13T09:57:21.303Z,3.80
2022-09-13T09:59:49.577Z,3.63
2022-09-13T10:02:24.077Z,4.53
2022-09-13T10:04:57.273Z,4.57
2022-09-13T10:07:32.873Z,5.50
2022-09-13T10:10:06.555Z,3.13
2022-09-13T10:12:42.408Z,2.30
2022-09-13T10:15:42.894Z,1.40
2022-09-13T10:18:43.541Z,3.17
2022-09-13T10:21:28.234Z,5.27
2022-09-13T10:24:38.972Z,3.67
2022-09-13T10:27:31.342Z,4.73
2022-09-13T10:30:02.009Z,2.37
2022-09-13T10:32:40.684Z,3.67
2022-09-13T10:35:10.970Z,2.93
2022-09-13T10:37:42.150Z,7.07
2022-09-13T10:40:20.000Z,4.07
2022-09-13T10:42:54.237Z,5.80
2022-09-13T10:45:34.734Z,1.90
2022-09-13T10:48:06.388Z,3.27
2022-09-13T10:50:36.143Z,2.77
2022-09-13T10:53:06.149Z,2.63
2022-09-13T10:55:43.213Z,2.83
2022-09-13T10:58:22.020Z,1.67
2022-09-13T11:01:22.473Z,9.57
2022-09-13T11:04:36.256Z,4.37
2022-09-13T11:07:14.630Z,5.33
2022-09-13T11:09:50.566Z,2.73
2022-09-13T11:12:21.926Z,2.40
2022-09-13T11:14:59.232Z,7.07
2022-09-13T11:17:35.152Z,6.03
2022-09-13T11:20:15.208Z,1.90
2022-09-13T11:23:00.699Z,3.37
2022-09-13T11:25:41.569Z,2.07
2022-09-13T11:28:13.955Z,4.07
2022-09-13T11:30:49.685Z,4.10
2022-09-13T11:33:28.527Z,5.80
2022-09-13T11:36:23.855Z,4.03
2022-09-13T11:38:58.926Z,3.03
2022-09-13T11:41:32.055Z,2.40
2022-09-13T11:44:28.041Z,6.67
2022-09-13T11:46:59.671Z,2.13
2022-09-13T11:49:50.143Z,4.43
2022-09-13T11:52:23.588Z,3.03
2022-09-13T11:54:59.065Z,4.73
2022-09-13T11:57:28.306Z,3.30
2022-09-13T12:00:00.144Z,1.97
2022-09-13T12:02:33.816Z,6.03
2022-09-13T12:05:22.188Z,2.47
2022-09-13T12:07:58.246Z,3.47
2022-09-13T12:10:27.639Z,3.30
2022-09-13T12:12:56.381Z,3.87
2022-09-13T12:15:36.571Z,3.83
2022-09-13T12:18:12.082Z,5.60
2022-09-13T12:20:41.263Z,3.60
2022-09-13T12:23:12.972Z,4.03
2022-09-13T12:25:54.123Z,5.17
2022-09-13T12:28:28.995Z,5.03
2022-09-13T12:30:59.094Z,2.40
2022-09-13T12:33:28.576Z,6.97
2022-09-13T12:36:22.190Z,5.13
2022-09-13T12:39:15.559Z,4.53
2022-09-13T12:41:51.825Z,4.37
2022-09-13T12:44:33.688Z,3.83
2022-09-13T12:47:48.650Z,4.17
2022-09-13T12:50:50.510Z,2.03
2022-09-13T12:53:36.093Z,3.13
2022-09-13T12:56:10.899Z,3.00
2022-09-13T12:58:54.589Z,5.00
2022-09-13T13:01:23.193Z,3.97
2022-09-13T13:03:57.374Z,4.60
2022-09-13T13:06:33.460Z,1.83
2022-09-13T13:09:03.952Z,2.40
2022-09-13T13:11:49.942Z,4.47
2022-09-13T13:14:29.748Z,8.53
2022-09-13T13:17:32.850Z,5.90
2022-09-13T13:20:00.978Z,3.30
2022-09-13T13:22:53.112Z,3.87
2022-09-13T13:25:38.163Z,2.50
2022-09-13T13:28:39.209Z,2.33
2022-09-13T13:31:08.564Z,4.07
2022-09-13T13:33:47.805Z,3.43
2022-09-13T13:36:45.087Z,3.33
2022-09-13T13:39:15.223Z,2.23
2022-09-13T13:41:50.629Z,4.43
2022-09-13T13:45:00.079Z,2.83
2022-09-13T13:48:21.651Z,1.93
2022-09-13T13:51:16.666Z,5.27
2022-09-13T13:53:47.214Z,3.53
2022-09-13T13:56:26.908Z,4.03
2022-09-13T13:59:01.417Z,6.40
2022-09-13T14:01:31.225Z,3.97
2022-09-13T14:04:39.878Z,4.00
2022-09-13T14:07:19.899Z,5.07
2022-09-13T14:09:55.701Z,3.53
2022-09-13T14:12:40.701Z,4.57
2022-09-13T14:15:35.037Z,5.10
2022-09-13T14:18:27.473Z,4.37
2022-09-13T14:21:02.402Z,2.57
2022-09-13T14:23:30.971Z,2.30
2022-09-13T14:26:04.559Z,3.93
2022-09-13T14:28:34.540Z,4.87
2022-09-13T14:31:02.949Z,2.20
2022-09-13T14:33:35.203Z,2.63
2022-09-13T14:36:05.878Z,3.42
2022-09-13T14:38:35.582Z,2.25
2022-09-13T14:41:13.570Z,3.92
2022-09-13T14:43:49.873Z,1.63
2022-09-13T14:46:21.145Z,2.10
2022-09-13T14:48:51.788Z,4.43
2022-09-13T14:51:22.498Z,3.45
2022-09-13T14:54:00.257Z,2.28
2022-09-13T14:56:33.842Z,4.33
2022-09-13T14:59:15.613Z,3.73
2022-09-13T15:01:43.744Z,5.32
2022-09-13T15:04:16.179Z,2.73
2022-09-13T15:06:44.319Z,3.67
2022-09-13T15:09:19.567Z,2.60
2022-09-13T15:12:01.543Z,3.70
2022-09-13T15:14:41.496Z,4.30
2022-09-13T15:17:20.331Z,4.37
2022-09-13T15:19:55.537Z,5.23
2022-09-13T15:22:25.508Z,7.07
2022-09-13T15:24:56.505Z,4.13
2022-09-13T15:27:31.024Z,3.20
2022-09-13T15:30:02.459Z,6.17
2022-09-13T15:32:32.931Z,3.30
2022-09-13T15:35:03.061Z,4.50
2022-09-13T15:37:33.952Z,3.80
2022-09-13T15:40:22.213Z,3.77
2022-09-13T15:42:57.568Z,2.87
2022-09-13T15:45:29.023Z,8.33
2022-09-13T15:47:57.284Z,2.13
2022-09-13T15:50:34.999Z,2.50
2022-09-13T15:53:07.769Z,4.93
2022-09-13T15:55:37.529Z,1.70
2022-09-13T15:58:05.784Z,1.53
2022-09-13T16:00:35.592Z,3.57
2022-09-13T16:03:09.536Z,1.67
2022-09-13T16:05:39.151Z,2.73
2022-09-13T16:08:07.523Z,2.80
2022-09-13T16:10:35.700Z,2.63
2022-09-13T16:13:06.382Z,5.30
2022-09-13T16:15:35.886Z,3.50
2022-09-13T16:18:07.598Z,5.23
2022-09-13T16:20:35.917Z,4.20
2022-09-13T16:23:05.579Z,2.87
2022-09-13T16:25:34.999Z,3.87
2022-09-13T16:28:04.648Z,5.73
2022-09-13T16:30:33.886Z,5.73
2022-09-13T16:33:03.798Z,2.47
2022-09-13T16:35:32.999Z,2.73
2022-09-13T16:38:05.555Z,3.87
2022-09-13T16:40:36.253Z,3.03
2022-09-13T16:43:04.445Z,1.87
2022-09-13T16:45:39.854Z,5.33
2022-09-13T16:48:29.277Z,3.00
2022-09-13T16:51:03.321Z,4.43
2022-09-13T16:53:33.507Z,3.53
2022-09-13T16:56:08.014Z,7.53
2022-09-13T16:58:37.484Z,2.93
2022-09-13T17:01:14.495Z,3.47
2022-09-13T17:03:45.500Z,4.07
2022-09-13T17:06:18.740Z,6.83
2022-09-13T17:08:52.163Z,3.23
2022-09-13T17:11:23.688Z,2.77
2022-09-13T17:14:00.946Z,4.17
2022-09-13T17:16:30.208Z,4.87
2022-09-13T17:19:04.787Z,1.97
2022-09-13T17:21:34.219Z,3.40
2022-09-13T17:24:08.971Z,4.00
2022-09-13T17:26:41.224Z,5.27
2022-09-13T17:29:26.818Z,3.53
2022-09-13T17:31:55.572Z,4.73
2022-09-13T17:34:26.850Z,5.20
2022-09-13T17:36:55.168Z,3.53
2022-09-13T17:39:24.578Z,4.43
2022-09-13T17:41:52.703Z,6.00
2022-09-13T17:44:21.036Z,3.37
2022-09-13T17:46:53.736Z,4.27
2022-09-13T17:49:32.379Z,5.17
2022-09-13T17:52:02.309Z,4.30
2022-09-13T17:54:31.570Z,4.80
2022-09-13T17:57:00.629Z,4.17
2022-09-13T17:59:29.097Z,6.87
2022-09-13T18:01:59.523Z,7.90
2022-09-13T18:04:30.594Z,3.83
2022-09-13T18:06:58.666Z,6.77
2022-09-13T18:09:28.664Z,7.90
2022-09-13T18:12:02.302Z,6.70
2022-09-13T18:14:31.318Z,5.10
2022-09-13T18:16:59.708Z,9.63
2022-09-13T18:19:44.956Z,8.87
2022-09-13T18:22:14.855Z,8.23
2022-09-13T18:24:47.848Z,6.47
2022-09-13T18:27:18.587Z,5.53
2022-09-13T18:29:47.015Z,5.63
2022-09-13T18:32:17.295Z,6.80
2022-09-13T18:34:47.399Z,5.93
2022-09-13T18:37:16.339Z,6.57
2022-09-13T18:39:46.299Z,10.30
2022-09-13T18:42:17.620Z,6.73
2022-09-13T18:44:55.588Z,4.50
2022-09-13T18:47:26.520Z,7.13
2022-09-13T18:49:56.139Z,5.43
2022-09-13T18:52:31.783Z,4.53
2022-09-13T18:55:03.654Z,3.60
2022-09-13T18:57:32.392Z,3.37
2022-09-13T19:00:06.385Z,6.30
2022-09-13T19:02:47.756Z,3.87
2022-09-13T19:05:36.464Z,5.20
2022-09-13T19:08:20.715Z,4.80
2022-09-13T19:10:56.736Z,3.50
2022-09-13T19:13:28.015Z,3.87
2022-09-13T19:16:02.014Z,8.40
2022-09-13T19:18:33.742Z,10.37
2022-09-13T19:21:08.451Z,6.43
2022-09-13T19:23:59.012Z,10.60
2022-09-13T19:26:34.891Z,12.83
2022-09-13T19:29:09.321Z,12.70
2022-09-13T19:31:39.439Z,7.77
2022-09-13T19:34:08.556Z,11.83
2022-09-13T19:36:38.271Z,7.13
2022-09-13T19:39:08.682Z,7.13
2022-09-13T19:41:40.915Z,8.83
2022-09-13T19:44:09.672Z,5.50
2022-09-13T19:46:39.199Z,7.63
2022-09-13T19:49:12.090Z,7.97
2022-09-13T19:51:42.100Z,8.77
2022-09-13T19:54:11.934Z,7.70
2022-09-13T19:56:50.391Z,8.00
2022-09-13T19:59:25.401Z,6.93
2022-09-13T20:01:56.084Z,9.00
2022-09-13T20:04:25.239Z,6.27
2022-09-13T20:06:56.104Z,4.80
2022-09-13T20:09:26.560Z,5.37
2022-09-13T20:12:01.824Z,5.97
2022-09-13T20:14:31.897Z,3.67
2022-09-13T20:17:04.542Z,7.17
2022-09-13T20:19:46.373Z,5.00
2022-09-13T20:22:20.850Z,1.97
2022-09-13T20:24:59.079Z,4.50
2022-09-13T20:27:30.866Z,5.83
2022-09-13T20:30:05.275Z,5.03
2022-09-13T20:32:34.411Z,5.33
2022-09-13T20:35:02.811Z,4.87
2022-09-13T20:37:31.778Z,5.63
2022-09-13T20:40:01.805Z,6.23
2022-09-13T20:42:33.153Z,3.00
2022-09-13T20:45:05.230Z,3.97
2022-09-13T20:47:36.702Z,4.77
2022-09-13T20:50:08.285Z,4.37
2022-09-13T20:52:36.589Z,4.17
2022-09-13T20:55:07.930Z,4.50
2022-09-13T20:57:42.882Z,3.77
2022-09-13T21:00:15.333Z,4.33
2022-09-13T21:02:46.587Z,5.53
2022-09-13T21:05:17.405Z,3.17
2022-09-13T21:08:03.238Z,1.80
2022-09-13T21:10:32.306Z,2.70
2022-09-13T21:13:02.320Z,4.50
2022-09-13T21:15:38.430Z,4.60
2022-09-13T21:18:10.409Z,2.50
2022-09-13T21:20:38.547Z,3.30
2022-09-13T21:23:06.871Z,4.43
2022-09-13T21:25:37.435Z,4.70
2022-09-13T21:28:07.292Z,2.90
2022-09-13T21:30:35.787Z,2.43
2022-09-13T21:33:07.392Z,6.67
2022-09-13T21:35:40.750Z,2.63
2022-09-13T21:38:09.342Z,2.37
2022-09-13T21:40:37.503Z,4.00
2022-09-13T21:43:07.948Z,2.60
2022-09-13T21:48:22.043Z,3.77
2022-09-13T21:50:50.530Z,3.87
2022-09-13T21:53:21.117Z,4.10
2022-09-13T21:55:49.462Z,5.37
2022-09-13T21:58:22.264Z,2.93
2022-09-13T22:00:50.987Z,2.73
2022-09-13T22:03:20.735Z,3.23
2022-09-13T22:05:56.804Z,2.27
2022-09-13T22:08:25.608Z,2.80
2022-09-13T22:10:54.007Z,4.10
2022-09-13T22:13:26.987Z,2.90
2022-09-13T22:15:58.236Z,7.57
2022-09-13T22:18:26.757Z,3.73
2022-09-13T22:20:55.067Z,6.43
2022-09-13T22:23:24.909Z,3.03
2022-09-13T22:25:53.388Z,3.00
2022-09-13T22:28:23.100Z,4.07
2022-09-13T22:30:51.422Z,1.83
2022-09-13T22:33:22.287Z,9.63
2022-09-13T22:36:00.607Z,2.33
2022-09-13T22:38:30.043Z,9.40
2022-09-13T22:40:58.924Z,2.87
2022-09-13T22:43:28.935Z,3.17
2022-09-13T22:46:02.929Z,3.37
2022-09-13T22:48:31.160Z,5.07
2022-09-13T22:50:59.336Z,4.97
2022-09-13T22:53:28.054Z,5.90
2022-09-13T22:55:57.687Z,3.83
2022-09-13T22:58:26.132Z,5.33
2022-09-13T23:01:03.110Z,4.20
2022-09-13T23:03:31.769Z,6.20
2022-09-13T23:06:00.495Z,3.47
2022-09-13T23:08:29.983Z,5.53
2022-09-13T23:10:58.340Z,6.37
2022-09-13T23:13:26.767Z,5.00
2022-09-13T23:15:56.842Z,5.43
2022-09-13T23:18:25.121Z,7.50
2022-09-13T23:20:57.562Z,5.43
2022-09-13T23:23:26.139Z,5.67
2022-09-13T23:25:54.892Z,3.63
2022-09-13T23:28:23.728Z,2.57
2022-09-13T23:30:52.014Z,3.57
2022-09-13T23:33:21.720Z,3.60
2022-09-13T23:35:50.984Z,2.77
2022-09-13T23:38:19.796Z,6.73
2022-09-13T23:40:48.012Z,2.23
2022-09-13T23:43:16.805Z,2.13
2022-09-13T23:45:44.976Z,4.53
2022-09-13T23:48:13.377Z,4.17
2022-09-13T23:50:43.698Z,2.93
2022-09-13T23:53:12.037Z,3.70
2022-09-13T23:55:40.644Z,2.93
2022-09-13T23:58:08.764Z,3.93
